createdAt,value
2017-12-24T00:08:29.481Z,8.31
2017-12-24T00:18:57.014Z,8.27
2017-12-24T00:29:25.538Z,8.23
2017-12-24T00:39:54.043Z,8.22
2017-12-24T00:50:22.506Z,8.18
2017-12-24T01:00:50.982Z,8.19
2017-12-24T01:11:19.484Z,8.18
2017-12-24T01:21:47.461Z,8.18
2017-12-24T01:32:16.060Z,8.22
2017-12-24T01:42:44.944Z,8.11
2017-12-24T01:53:13.445Z,8.06
2017-12-24T02:03:41.946Z,8.14
2017-12-24T02:14:10.430Z,8.22
2017-12-24T02:24:38.944Z,8.26
2017-12-24T02:35:07.316Z,8.27
2017-12-24T02:45:35.349Z,8.26
2017-12-24T02:56:04.289Z,8.23
2017-12-24T03:06:32.300Z,8.19
2017-12-24T03:17:01.277Z,8.22
2017-12-24T03:27:29.295Z,8.23
2017-12-24T03:37:58.287Z,8.25
2017-12-24T03:48:26.791Z,8.22
2017-12-24T03:58:54.766Z,8.17
2017-12-24T04:09:23.764Z,8.11
2017-12-24T04:19:52.257Z,8.09
2017-12-24T04:30:20.239Z,8.07
2017-12-24T04:40:49.222Z,8.06
2017-12-24T04:51:17.202Z,8.03
2017-12-24T05:01:46.193Z,8.02
2017-12-24T05:12:14.157Z,8.02
2017-12-24T05:22:42.629Z,8.02
2017-12-24T05:33:11.636Z,8.02
2017-12-24T05:43:40.063Z,8.02
2017-12-24T05:54:08.022Z,8.01
2017-12-24T06:04:36.984Z,8.00
2017-12-24T06:15:05.467Z,8.01
2017-12-24T06:25:33.422Z,8.02
2017-12-24T06:36:02.388Z,8.02
2017-12-24T06:46:30.355Z,8.01
2017-12-24T06:56:59.330Z,8.02
2017-12-24T07:07:27.848Z,8.02
2017-12-24T07:17:56.304Z,8.03
2017-12-24T07:28:24.788Z,8.03
2017-12-24T07:38:52.769Z,8.03
2017-12-24T07:49:21.260Z,8.06
2017-12-24T07:59:50.253Z,8.09
2017-12-24T08:10:18.255Z,8.13
2017-12-24T08:20:46.786Z,8.18
2017-12-24T08:31:15.294Z,8.26
2017-12-24T08:41:44.320Z,8.35
2017-12-24T08:52:12.886Z,8.40
2017-12-24T09:02:41.483Z,8.50
2017-12-24T09:13:09.613Z,8.56
2017-12-24T09:23:38.238Z,8.60
2017-12-24T09:34:06.888Z,8.68
2017-12-24T09:44:35.574Z,8.86
2017-12-24T09:55:04.308Z,8.97
2017-12-24T10:05:33.060Z,9.11
2017-12-24T10:16:02.359Z,9.18
2017-12-24T10:26:31.189Z,9.22
2017-12-24T10:36:59.487Z,9.26
2017-12-24T10:47:28.429Z,9.31
2017-12-24T10:57:57.735Z,9.39
2017-12-24T11:08:26.031Z,9.53
2017-12-24T11:18:55.151Z,9.68
2017-12-24T11:29:24.502Z,9.81
2017-12-24T11:39:53.484Z,9.85
2017-12-24T11:50:22.002Z,9.89
2017-12-24T12:00:50.916Z,9.76
2017-12-24T12:11:20.410Z,9.89
2017-12-24T12:21:49.412Z,9.93
2017-12-24T12:32:17.950Z,9.89
2017-12-24T12:42:46.948Z,9.86
2017-12-24T12:53:15.966Z,9.94
2017-12-24T13:03:44.986Z,10.10
2017-12-24T13:14:14.568Z,10.10
2017-12-24T13:15:20.273Z,10.18
2017-12-24T13:25:49.401Z,10.06
2017-12-24T13:36:19.034Z,9.93
2017-12-24T13:46:47.484Z,9.97
2017-12-24T13:47:54.009Z,10.03
2017-12-24T13:58:23.260Z,10.09
2017-12-24T14:08:51.759Z,9.77
2017-12-24T14:19:20.770Z,9.59
2017-12-24T14:29:50.126Z,9.39
2017-12-24T14:40:19.146Z,9.21
2017-12-24T14:50:47.847Z,9.09
2017-12-24T15:01:15.967Z,8.97
2017-12-24T15:11:44.655Z,8.88
2017-12-24T15:22:13.799Z,8.77
2017-12-24T15:32:41.984Z,8.71
2017-12-24T15:43:11.161Z,8.61
2017-12-24T15:53:39.591Z,8.59
2017-12-24T16:14:36.706Z,8.44
2017-12-24T16:25:05.254Z,8.39
2017-12-24T16:35:33.834Z,8.35
2017-12-24T16:46:01.753Z,8.31
2017-12-24T16:56:30.761Z,8.27
2017-12-24T17:06:59.074Z,8.27
2017-12-24T17:17:27.823Z,8.22
2017-12-24T17:27:55.707Z,8.22
2017-12-24T17:38:24.710Z,8.19
2017-12-24T17:48:53.993Z,8.15
2017-12-24T17:59:21.623Z,8.09
2017-12-24T18:09:49.540Z,8.01
2017-12-24T18:20:17.988Z,8.01
2017-12-24T18:30:46.455Z,8.00
2017-12-24T18:41:15.438Z,7.98
2017-12-24T18:51:43.359Z,7.98
2017-12-24T19:02:13.177Z,7.96
2017-12-24T19:12:40.571Z,7.90
2017-12-24T19:23:08.446Z,7.86
2017-12-24T19:33:37.464Z,7.82
2017-12-24T19:44:05.231Z,7.84
2017-12-24T19:54:33.581Z,7.84
2017-12-24T20:05:01.962Z,7.88
2017-12-24T20:15:30.885Z,7.98
2017-12-24T20:25:59.277Z,8.03
2017-12-24T20:36:27.706Z,8.06
2017-12-24T20:46:56.215Z,8.09
2017-12-24T20:57:24.555Z,8.07
2017-12-24T21:07:53.033Z,8.07
2017-12-24T21:18:20.974Z,8.06
2017-12-24T21:28:49.390Z,8.05
2017-12-24T21:39:17.868Z,8.03
2017-12-24T21:49:46.267Z,8.02
2017-12-24T22:00:16.264Z,8.02
2017-12-24T22:10:43.122Z,8.01
2017-12-24T22:21:12.056Z,8.01
2017-12-24T22:31:40.480Z,8.02
2017-12-24T23:03:07.325Z,7.98
2017-12-24T23:13:34.672Z,7.96
2017-12-24T23:24:02.795Z,7.96
2017-12-24T23:34:31.019Z,7.94
2017-12-24T23:44:58.953Z,7.92
2017-12-24T23:55:28.098Z,7.92
